createdAt,value
2023-04-27T00:01:33.724Z,2.55
2023-04-27T00:06:37.112Z,2.58
2023-04-27T00:11:40.358Z,2.52
2023-04-27T00:16:43.862Z,2.39
2023-04-27T00:21:47.248Z,2.21
2023-04-27T00:26:50.775Z,2.12
2023-04-27T00:31:54.076Z,2.02
2023-04-27T00:36:57.998Z,2.01
2023-04-27T00:42:01.844Z,1.92
2023-04-27T00:47:06.485Z,1.88
2023-04-27T00:52:09.673Z,1.86
2023-04-27T00:57:13.186Z,1.83
2023-04-27T01:02:17.164Z,1.81
2023-04-27T01:07:26.054Z,1.83
2023-04-27T01:12:29.373Z,1.77
2023-04-27T01:17:33.021Z,1.70
2023-04-27T01:22:37.503Z,1.65
2023-04-27T01:27:41.040Z,1.63
2023-04-27T01:32:44.490Z,1.62
2023-04-27T01:37:48.190Z,1.62
2023-04-27T01:42:51.685Z,1.61
2023-04-27T01:47:55.003Z,1.59
2023-04-27T01:52:58.514Z,1.59
2023-04-27T01:58:02.035Z,1.59
2023-04-27T02:03:05.652Z,1.61
2023-04-27T02:08:09.472Z,1.61
2023-04-27T02:13:12.781Z,1.59
2023-04-27T02:18:16.298Z,1.54
2023-04-27T02:23:19.706Z,1.54
2023-04-27T02:28:23.225Z,1.54
2023-04-27T02:33:27.050Z,1.55
2023-04-27T02:38:30.875Z,1.51
2023-04-27T02:43:34.218Z,1.50
2023-04-27T02:48:37.701Z,1.48
2023-04-27T02:53:41.412Z,1.47
2023-04-27T02:58:45.236Z,1.44
2023-04-27T03:03:48.895Z,1.41
2023-04-27T03:08:52.575Z,1.40
2023-04-27T03:13:56.495Z,1.37
2023-04-27T03:19:00.321Z,1.36
2023-04-27T03:24:04.133Z,1.38
2023-04-27T03:29:07.574Z,1.40
2023-04-27T03:34:11.181Z,1.45
2023-04-27T03:39:15.015Z,1.49
2023-04-27T03:44:18.820Z,1.57
2023-04-27T03:49:22.438Z,1.64
2023-04-27T03:54:26.064Z,1.72
2023-04-27T03:59:30.526Z,1.81
2023-04-27T04:04:34.065Z,1.89
2023-04-27T04:09:37.836Z,2.02
2023-04-27T04:14:41.249Z,2.13
2023-04-27T04:19:44.765Z,2.25
2023-04-27T04:24:48.384Z,2.43
2023-04-27T04:29:51.794Z,2.61
2023-04-27T04:34:55.137Z,2.87
2023-04-27T04:39:58.724Z,3.13
2023-04-27T04:45:02.540Z,3.40
2023-04-27T04:50:07.179Z,3.70
2023-04-27T04:55:11.423Z,4.01
2023-04-27T05:00:14.829Z,4.36
2023-04-27T05:05:18.241Z,4.67
2023-04-27T05:10:21.753Z,4.97
2023-04-27T05:15:25.382Z,5.27
2023-04-27T05:20:28.806Z,5.57
2023-04-27T05:25:41.969Z,5.89
2023-04-27T05:30:45.650Z,6.04
2023-04-27T05:35:49.162Z,6.01
2023-04-27T05:40:57.197Z,5.93
2023-04-27T05:46:00.623Z,5.92
2023-04-27T05:51:04.866Z,5.88
2023-04-27T05:56:09.043Z,5.91
2023-04-27T06:01:12.995Z,6.04
2023-04-27T06:06:16.612Z,6.22
2023-04-27T06:11:19.929Z,6.30
2023-04-27T06:16:24.024Z,6.49
2023-04-27T06:21:28.453Z,6.67
2023-04-27T06:26:31.698Z,6.76
2023-04-27T06:31:35.306Z,6.94
2023-04-27T06:36:38.779Z,7.26
2023-04-27T06:41:42.241Z,7.60
2023-04-27T06:46:45.653Z,7.95
2023-04-27T06:51:49.744Z,8.31
2023-04-27T06:56:55.048Z,8.61
2023-04-27T07:01:58.507Z,8.76
2023-04-27T07:07:02.069Z,8.88
2023-04-27T07:12:05.481Z,8.77
2023-04-27T07:17:09.002Z,8.75
2023-04-27T07:22:12.516Z,8.83
2023-04-27T07:27:16.030Z,9.07
2023-04-27T07:32:19.467Z,9.56
2023-04-27T07:37:24.440Z,9.92
2023-04-27T07:42:27.808Z,10.03
2023-04-27T07:47:31.215Z,10.05
2023-04-27T07:52:34.632Z,9.83
2023-04-27T07:57:38.142Z,9.62
2023-04-27T08:02:41.720Z,9.68
2023-04-27T08:07:45.824Z,9.80
2023-04-27T08:12:49.305Z,9.93
2023-04-27T08:17:52.864Z,9.85
2023-04-27T08:22:56.872Z,9.63
2023-04-27T08:28:00.261Z,9.28
2023-04-27T08:33:03.726Z,8.98
2023-04-27T08:38:08.212Z,8.87
2023-04-27T08:43:12.249Z,8.81
2023-04-27T08:48:16.080Z,8.75
2023-04-27T08:53:23.080Z,8.87
2023-04-27T08:58:39.694Z,9.14
2023-04-27T09:03:43.772Z,9.52
2023-04-27T09:08:48.387Z,9.75
2023-04-27T09:13:51.870Z,9.72
2023-04-27T09:18:56.904Z,9.60
2023-04-27T09:24:13.953Z,9.69
2023-04-27T09:29:17.686Z,10.05
2023-04-27T09:34:21.356Z,10.57
2023-04-27T09:39:25.215Z,10.97
2023-04-27T09:44:30.319Z,11.18
2023-04-27T09:49:35.050Z,11.08
2023-04-27T09:54:42.832Z,11.23
2023-04-27T10:00:11.190Z,11.23
2023-04-27T10:05:33.189Z,11.28
2023-04-27T10:10:47.441Z,11.46
2023-04-27T10:15:52.596Z,11.18
2023-04-27T10:20:56.212Z,10.86
2023-04-27T10:26:07.747Z,10.69
2023-04-27T10:31:14.037Z,10.80
2023-04-27T10:36:17.526Z,11.04
2023-04-27T10:41:21.039Z,11.97
2023-04-27T10:46:24.429Z,12.80
2023-04-27T10:51:28.858Z,13.03
2023-04-27T10:56:33.731Z,12.74
2023-04-27T11:01:37.868Z,12.33
2023-04-27T11:06:47.042Z,11.96
2023-04-27T11:11:51.034Z,11.61
2023-04-27T11:16:54.379Z,11.82
2023-04-27T11:22:07.288Z,12.15
2023-04-27T11:27:10.690Z,12.53
2023-04-27T11:32:24.106Z,12.77
2023-04-27T11:37:28.082Z,13.09
2023-04-27T11:42:34.449Z,13.15
2023-04-27T11:47:38.323Z,12.94
2023-04-27T11:52:41.796Z,12.67
2023-04-27T11:57:45.300Z,12.46
2023-04-27T12:02:48.864Z,12.48
2023-04-27T12:07:52.859Z,12.61
2023-04-27T12:12:56.316Z,12.78
2023-04-27T12:18:00.547Z,12.98
2023-04-27T12:23:04.329Z,13.27
2023-04-27T12:28:08.360Z,13.65
2023-04-27T12:33:12.459Z,13.71
2023-04-27T12:38:16.203Z,13.66
2023-04-27T12:43:19.718Z,13.60
2023-04-27T12:48:23.874Z,13.41
2023-04-27T12:53:29.045Z,13.42
2023-04-27T12:58:32.607Z,13.87
2023-04-27T13:03:36.014Z,13.90
2023-04-27T13:08:39.863Z,13.26
2023-04-27T13:13:44.109Z,11.91
2023-04-27T13:18:49.859Z,10.73
2023-04-27T13:23:55.196Z,10.13
2023-04-27T13:28:58.731Z,9.76
2023-04-27T13:34:04.590Z,9.54
2023-04-27T13:39:08.033Z,9.89
2023-04-27T13:44:11.828Z,10.68
2023-04-27T13:49:15.480Z,11.40
2023-04-27T13:54:18.959Z,11.82
2023-04-27T13:59:22.471Z,11.80
2023-04-27T14:04:26.367Z,11.06
2023-04-27T14:09:29.911Z,10.35
2023-04-27T14:14:33.432Z,9.91
2023-04-27T14:19:37.560Z,9.73
2023-04-27T14:24:41.496Z,9.64
2023-04-27T14:29:45.001Z,9.46
2023-04-27T14:34:48.620Z,8.94
2023-04-27T14:39:52.034Z,8.58
2023-04-27T14:44:55.450Z,8.46
2023-04-27T14:49:59.082Z,8.53
2023-04-27T14:55:02.481Z,8.58
2023-04-27T15:00:10.225Z,8.71
2023-04-27T15:05:13.708Z,9.27
2023-04-27T15:10:17.436Z,10.14
2023-04-27T15:15:20.739Z,12.65
2023-04-27T15:20:24.669Z,15.52
2023-04-27T15:25:27.970Z,14.96
2023-04-27T15:30:31.437Z,18.41
2023-04-27T15:35:35.008Z,19.73
2023-04-27T15:40:40.671Z,23.82
2023-04-27T15:45:44.806Z,23.70
2023-04-27T15:50:48.110Z,20.74
2023-04-27T15:55:51.828Z,18.73
2023-04-27T16:00:55.359Z,17.02
2023-04-27T16:05:58.654Z,15.55
2023-04-27T16:11:02.023Z,14.30
2023-04-27T16:16:07.284Z,13.62
2023-04-27T16:21:10.737Z,12.72
2023-04-27T16:26:14.047Z,12.26
2023-04-27T16:31:17.781Z,14.08
2023-04-27T16:36:21.385Z,19.47
2023-04-27T16:41:24.903Z,23.59
2023-04-27T16:46:28.447Z,26.36
2023-04-27T16:51:32.133Z,28.16
2023-04-27T16:56:36.482Z,28.57
2023-04-27T17:01:40.440Z,28.25
2023-04-27T17:06:47.130Z,27.80
2023-04-27T17:11:50.605Z,26.12
2023-04-27T17:16:54.320Z,26.08
2023-04-27T17:21:57.949Z,23.34
2023-04-27T17:27:01.970Z,21.58
2023-04-27T17:32:05.830Z,21.46
2023-04-27T17:37:09.424Z,20.72
2023-04-27T17:42:12.941Z,18.28
2023-04-27T17:47:18.389Z,16.30
2023-04-27T17:52:22.927Z,15.00
2023-04-27T17:57:26.378Z,14.50
2023-04-27T18:02:30.121Z,13.58
2023-04-27T18:07:37.775Z,12.27
2023-04-27T18:12:41.296Z,11.08
2023-04-27T18:19:09.600Z,10.10
2023-04-27T18:24:13.117Z,9.16
2023-04-27T18:29:16.742Z,8.51
2023-04-27T18:34:20.652Z,8.00
2023-04-27T18:39:24.030Z,7.59
2023-04-27T18:44:27.381Z,7.23
2023-04-27T18:49:30.907Z,6.91
2023-04-27T18:54:34.512Z,6.66
2023-04-27T18:59:43.257Z,6.44
2023-04-27T19:04:52.833Z,6.27
2023-04-27T19:10:06.805Z,6.08
2023-04-27T19:15:10.809Z,5.85
2023-04-27T19:20:14.206Z,5.65
2023-04-27T19:25:17.734Z,5.47
2023-04-27T19:30:21.246Z,5.27
2023-04-27T19:35:26.604Z,5.06
2023-04-27T19:40:30.020Z,4.89
2023-04-27T19:45:34.000Z,4.75
2023-04-27T19:50:41.553Z,4.60
2023-04-27T19:55:45.060Z,4.49
2023-04-27T20:00:48.449Z,4.32
2023-04-27T20:05:52.217Z,4.20
2023-04-27T20:10:55.923Z,4.05
2023-04-27T20:15:59.315Z,3.88
2023-04-27T20:21:03.589Z,3.73
2023-04-27T20:26:07.174Z,3.59
2023-04-27T20:31:11.229Z,3.45
2023-04-27T20:36:18.177Z,3.33
2023-04-27T20:41:21.825Z,3.26
2023-04-27T20:46:25.335Z,3.21
2023-04-27T20:51:29.268Z,3.16
2023-04-27T20:56:33.245Z,3.12
2023-04-27T21:01:36.754Z,3.10
2023-04-27T21:06:41.490Z,3.09
2023-04-27T21:11:44.974Z,3.12
2023-04-27T21:16:48.545Z,3.15
2023-04-27T21:21:52.210Z,3.19
2023-04-27T21:26:56.124Z,3.17
2023-04-27T21:31:59.844Z,3.13
2023-04-27T21:37:03.787Z,3.10
2023-04-27T21:42:07.493Z,3.10
2023-04-27T21:47:11.547Z,3.04
2023-04-27T21:52:15.030Z,2.97
2023-04-27T21:57:20.056Z,2.90
2023-04-27T22:02:24.136Z,2.88
2023-04-27T22:07:28.554Z,2.84
2023-04-27T22:12:31.959Z,2.77
2023-04-27T22:17:35.831Z,2.73
2023-04-27T22:22:41.262Z,2.70
2023-04-27T22:27:45.600Z,2.65
2023-04-27T22:32:52.702Z,2.59
2023-04-27T22:37:56.721Z,2.51
2023-04-27T22:43:00.223Z,2.46
2023-04-27T22:48:03.977Z,2.42
2023-04-27T22:53:07.673Z,2.38
2023-04-27T22:58:11.383Z,2.36
2023-04-27T23:03:14.993Z,2.31
2023-04-27T23:08:18.939Z,2.26
2023-04-27T23:13:22.646Z,2.19
2023-04-27T23:18:26.163Z,2.15
2023-04-27T23:23:29.580Z,2.12
2023-04-27T23:28:33.096Z,2.07
2023-04-27T23:33:36.808Z,2.00
2023-04-27T23:38:40.328Z,1.95
2023-04-27T23:43:44.968Z,1.93
2023-04-27T23:48:48.383Z,1.89
2023-04-27T23:53:51.817Z,1.80
2023-04-27T23:58:55.315Z,1.73
